Time;durP1;ratioP1;P1;durP2;ratioP2;P2;SDS_P1;SDS_P2;PMS_P1;PMS_P2;Temp;Humidity;BMP_temperature;BMP_pressure;BME280_temperature;BME280_humidity;BME280_pressure;Samples;Min_cycle;Max_cycle;Signal;HPM_P1;HPM_P2
2021/09/16 05:00:39;;;;;;;12.13;9.77;;;;;;;16.70;68.18;95039.69;6007464;23;20033;-83
2021/09/16 05:03:04;;;;;;;11.73;9.30;;;;;;;17.14;65.90;95053.84;4949294;29;20047;-81
2021/09/16 05:05:32;;;;;;;11.35;9.50;;;;;;;16.92;66.83;95053.31;4949452;29;20038;-83
2021/09/16 05:07:57;;;;;;;8.82;7.93;;;;;;;17.29;66.54;95055.16;4948814;29;20113;-82
2021/09/16 05:10:23;;;;;;;9.48;8.88;;;;;;;18.50;61.81;95050.47;4932555;29;20503;-81
2021/09/16 05:12:48;;;;;;;9.57;8.25;;;;;;;19.59;58.56;95052.25;4931947;29;20052;-81
2021/09/16 05:15:13;;;;;;;10.10;7.95;;;;;;;20.36;56.11;95046.81;4965720;28;20401;-83
2021/09/16 05:17:39;;;;;;;7.85;7.25;;;;;;;21.63;52.79;95050.25;4948093;29;20555;-86
2021/09/16 05:20:05;;;;;;;10.60;7.50;;;;;;;22.95;48.65;95050.50;4949210;29;20118;-82
2021/09/16 05:22:30;;;;;;;9.52;7.00;;;;;;;22.84;48.75;95057.47;4944771;28;20054;-80
2021/09/16 05:24:56;;;;;;;10.07;7.80;;;;;;;23.03;48.42;95056.16;4964452;28;20027;-78
2021/09/16 05:27:21;;;;;;;8.05;7.35;;;;;;;23.93;47.06;95058.22;4963820;28;20031;-79
2021/09/16 05:29:47;;;;;;;8.65;7.80;;;;;;;24.51;44.87;95067.19;4947469;29;20019;-81
2021/09/16 05:32:12;;;;;;;8.52;7.50;;;;;;;24.43;45.32;95060.53;4947024;28;20481;-79
2021/09/16 05:34:38;;;;;;;8.20;7.40;;;;;;;25.22;43.96;95057.81;4946898;29;20035;-80
2021/09/16 05:37:04;;;;;;;8.25;7.45;;;;;;;24.66;45.10;95060.13;4965229;28;20118;-80
2021/09/16 05:39:29;;;;;;;10.65;7.68;;;;;;;23.49;48.45;95060.16;4947060;28;20119;-83
2021/09/16 05:41:54;;;;;;;8.60;7.30;;;;;;;;;;4948551;29;20031;-78
2021/09/16 05:44:20;;;;;;;9.68;8.40;;;;;;;24.66;46.01;95062.78;4936249;29;20031;-78
2021/09/16 05:46:50;;;;;;;8.77;8.13;;;;;;;25.54;43.82;95073.63;4928004;29;20090;-80
2021/09/16 05:49:15;;;;;;;8.77;8.13;;;;;;;25.37;44.24;95065.84;4928955;29;20075;-79
2021/09/16 05:51:41;;;;;;;8.93;8.07;;;;;;;22.63;50.04;95076.72;4926408;29;20019;-79
2021/09/16 05:54:06;;;;;;;11.02;9.38;;;;;;;20.80;57.41;95076.22;4928794;29;20031;-78
2021/09/16 05:56:32;;;;;;;9.80;8.90;;;;;;;20.91;57.54;95068.28;4926854;29;20493;-78
2021/09/16 05:58:57;;;;;;;9.88;8.05;;;;;;;21.00;58.00;95076.63;4945463;28;20032;-78
2021/09/16 06:01:23;;;;;;;8.02;7.15;;;;;;;21.31;56.58;95062.28;4927357;29;20051;-78
2021/09/16 06:03:48;;;;;;;7.78;7.07;;;;;;;21.92;54.51;95069.50;4928488;29;20119;-78
2021/09/16 06:06:14;;;;;;;8.00;7.20;;;;;;;22.20;54.88;95073.91;4930981;29;20038;-78
2021/09/16 06:08:39;;;;;;;8.18;7.30;;;;;;;22.37;53.70;95077.38;4937406;29;20043;-78
2021/09/16 06:11:05;;;;;;;8.55;7.68;;;;;;;23.56;51.05;95075.84;4896754;29;20024;-79
2021/09/16 06:13:30;;;;;;;8.10;7.28;;;;;;;27.39;40.91;95070.44;4911142;29;20043;-78
2021/09/16 06:15:56;;;;;;;8.40;7.65;;;;;;;26.97;40.94;95074.25;4897068;29;20068;-78
2021/09/16 06:18:21;;;;;;;9.27;7.20;;;;;;;29.21;37.65;95073.38;4911209;29;20035;-78
2021/09/16 06:20:49;;;;;;;9.13;7.40;;;;;;;29.88;35.76;95078.72;4913521;29;20027;-78
2021/09/16 06:23:15;;;;;;;7.60;6.95;;;;;;;30.36;35.02;95080.16;4929521;29;20043;-77
2021/09/16 06:25:40;;;;;;;7.88;7.10;;;;;;;30.38;35.49;95080.66;4928534;29;20036;-78
2021/09/16 06:28:06;;;;;;;8.32;7.32;;;;;;;31.05;34.38;95076.59;4911883;29;20043;-77
2021/09/16 06:30:31;;;;;;;12.98;7.75;;;;;;;32.11;33.04;95071.03;4911086;29;20557;-77
2021/09/16 06:32:57;;;;;;;8.75;7.68;;;;;;;32.46;32.24;95082.81;4928904;29;20106;-78
2021/09/16 06:35:22;;;;;;;12.10;7.45;;;;;;;31.85;32.75;95076.13;4912071;29;20120;-77
2021/09/16 06:37:47;;;;;;;8.00;7.22;;;;;;;32.97;30.88;95085.06;4928623;29;20042;-77
2021/09/16 06:40:14;;;;;;;8.55;7.60;;;;;;;33.29;30.63;95087.44;4927797;29;20027;-78
2021/09/16 06:42:40;;;;;;;9.63;7.90;;;;;;;33.18;30.60;95081.53;4929764;29;20565;-76
2021/09/16 06:45:06;;;;;;;8.20;7.57;;;;;;;33.20;30.23;95078.56;4932576;29;20032;-76
2021/09/16 06:47:31;;;;;;;8.52;7.65;;;;;;;33.92;30.48;95077.03;4931807;29;20032;-77
2021/09/16 06:49:57;;;;;;;10.25;7.35;;;;;;;34.01;29.49;95092.38;4932050;29;20027;-77
2021/09/16 06:52:22;;;;;;;7.72;7.00;;;;;;;33.82;29.49;95079.22;4915247;29;20023;-78
2021/09/16 06:54:48;;;;;;;8.25;7.55;;;;;;;32.85;30.65;95077.53;4916949;29;20019;-76
2021/09/16 06:57:14;;;;;;;7.72;6.97;;;;;;;34.19;29.72;95073.31;4927276;29;20416;-76
2021/09/16 06:59:39;;;;;;;7.72;6.97;;;;;;;35.18;27.87;95084.91;4897876;29;20036;-76
2021/09/16 07:02:05;;;;;;;10.80;7.72;;;;;;;34.09;28.85;95081.66;4911805;29;20048;-76
2021/09/16 07:04:31;;;;;;;9.07;7.93;;;;;;;33.96;30.17;95076.41;4897610;29;20035;-77
2021/09/16 07:06:58;;;;;;;10.02;7.88;;;;;;;34.35;28.73;95077.09;4897213;29;20036;-77
2021/09/16 07:09:24;;;;;;;10.90;7.43;;;;;;;34.38;28.48;95073.78;4928300;29;20050;-76
2021/09/16 07:11:49;;;;;;;10.70;8.32;;;;;;;32.23;31.51;95079.31;4928880;29;20683;-76
2021/09/16 07:14:15;;;;;;;8.38;7.75;;;;;;;27.74;38.71;95073.72;4913358;29;20040;-77
2021/09/16 07:16:41;;;;;;;12.48;8.25;;;;;;;24.94;45.91;95090.03;4923837;29;20031;-75
2021/09/16 07:19:07;;;;;;;8.80;7.95;;;;;;;26.18;42.88;95087.31;4927255;29;20373;-77
2021/09/16 07:21:32;;;;;;;8.57;7.78;;;;;;;25.91;43.30;95079.53;4932180;29;20027;-76
2021/09/16 07:23:57;;;;;;;8.88;7.78;;;;;;;27.08;42.09;95078.50;4931545;29;20409;-75
2021/09/16 07:26:24;;;;;;;9.43;8.50;;;;;;;25.98;43.20;95076.63;4946476;29;20036;-76
2021/09/16 07:28:50;;;;;;;9.10;8.20;;;;;;;26.32;42.56;95077.78;4931502;29;20043;-79
2021/09/16 07:31:17;;;;;;;9.77;8.57;;;;;;;25.77;44.51;95075.00;4908962;29;20599;-83
2021/09/16 07:33:42;;;;;;;9.45;8.52;;;;;;;26.54;43.68;95077.50;4912416;29;20051;-79
2021/09/16 07:36:07;;;;;;;8.80;7.80;;;;;;;26.66;42.13;95068.19;4930458;29;20032;-77
2021/09/16 07:38:33;;;;;;;9.13;8.13;;;;;;;25.73;44.89;95084.56;4932025;28;20055;-80
2021/09/16 07:40:59;;;;;;;10.32;9.27;;;;;;;23.23;48.96;95071.47;4913900;29;20477;-75
2021/09/16 07:43:24;;;;;;;12.10;8.45;;;;;;;24.02;47.63;95079.72;4931279;29;20031;-77
2021/09/16 07:45:49;;;;;;;8.68;7.65;;;;;;;23.58;50.05;95071.09;4930548;29;20091;-74
2021/09/16 07:48:16;;;;;;;9.57;8.60;;;;;;;24.90;46.75;95070.38;4929705;29;20043;-77
2021/09/16 07:50:41;;;;;;;12.13;9.43;;;;;;;25.13;46.66;95059.38;4947846;29;20412;-78
2021/09/16 07:53:09;;;;;;;11.10;8.30;;;;;;;26.11;45.28;95066.31;4929580;29;20119;-79
2021/09/16 07:55:35;;;;;;;8.70;7.90;;;;;;;25.56;44.45;95050.25;4930124;29;20500;-79
2021/09/16 07:58:00;;;;;;;9.52;8.38;;;;;;;25.79;44.34;95062.25;4926722;29;20036;-77
2021/09/16 08:00:26;;;;;;;13.45;8.20;;;;;;;25.73;44.96;95060.66;4946394;28;20027;-77
2021/09/16 08:02:51;;;;;;;8.88;8.20;;;;;;;25.58;44.75;95061.44;4948113;28;20039;-79
2021/09/16 08:05:17;;;;;;;12.90;8.57;;;;;;;25.12;46.73;95060.44;4911372;29;20536;-78
2021/09/16 08:07:44;;;;;;;9.82;7.63;;;;;;;26.10;45.09;95042.69;4890115;29;20031;-79
2021/09/16 08:10:10;;;;;;;9.57;8.57;;;;;;;23.42;48.60;95050.81;4912060;29;20123;-76
2021/09/16 08:12:35;;;;;;;9.60;8.43;;;;;;;23.24;49.42;95061.69;4929184;29;20130;-77
2021/09/16 08:15:01;;;;;;;8.15;7.40;;;;;;;25.25;47.26;95059.16;4925273;29;20111;-77
2021/09/16 08:17:26;;;;;;;10.48;6.68;;;;;;;25.93;43.63;95053.53;4913866;29;20035;-79
2021/09/16 08:19:52;;;;;;;9.55;7.45;;;;;;;25.99;43.15;95041.06;4921891;29;20067;-78
2021/09/16 08:22:17;;;;;;;7.95;6.68;;;;;;;25.65;43.12;95036.22;4894829;29;20036;-79
2021/09/16 08:24:43;;;;;;;7.65;6.95;;;;;;;25.51;42.86;95043.09;4927733;29;20096;-80
2021/09/16 08:27:08;;;;;;;8.50;7.60;;;;;;;25.42;43.94;95026.06;4925631;29;20036;-79
2021/09/16 08:29:34;;;;;;;10.68;8.52;;;;;;;26.05;44.41;95035.50;4927680;29;20079;-79
2021/09/16 08:31:59;;;;;;;7.72;7.03;;;;;;;26.54;41.82;95027.00;4925617;29;20050;-79
2021/09/16 08:34:25;;;;;;;11.35;7.78;;;;;;;25.53;42.66;95011.78;4927192;29;20028;-78
2021/09/16 08:36:52;;;;;;;7.60;6.90;;;;;;;25.51;42.31;95019.22;4925445;29;20036;-78
2021/09/16 08:39:17;;;;;;;9.80;6.63;;;;;;;26.36;42.99;95022.25;4928372;29;20446;-77
2021/09/16 08:41:43;;;;;;;14.05;7.00;;;;;;;26.65;43.27;95026.72;4927225;29;20090;-78
2021/09/16 08:44:09;;;;;;;7.38;6.63;;;;;;;27.07;41.60;95023.69;4927129;29;20401;-79
2021/09/16 08:46:35;;;;;;;7.35;6.75;;;;;;;27.10;41.37;95017.06;4927996;29;20050;-77
2021/09/16 08:49:00;;;;;;;7.80;6.78;;;;;;;27.44;40.02;95020.66;4942944;29;20035;-80
2021/09/16 08:51:26;;;;;;;8.10;6.65;;;;;;;27.68;40.99;95039.41;4914349;29;20028;-77
2021/09/16 08:53:52;;;;;;;6.80;6.10;;;;;;;27.83;39.06;95035.88;4910668;29;20036;-80
2021/09/16 08:56:17;;;;;;;8.40;7.10;;;;;;;27.51;39.98;95018.50;4919903;29;20842;-79
2021/09/16 08:58:44;;;;;;;7.75;6.95;;;;;;;27.98;39.85;95033.91;4907412;29;20036;-77
2021/09/16 09:01:10;;;;;;;7.90;7.20;;;;;;;27.88;39.05;95025.16;4924715;29;20078;-77
2021/09/16 09:03:35;;;;;;;9.80;7.57;;;;;;;27.65;40.41;95032.78;4928894;29;20055;-78
2021/09/16 09:06:00;;;;;;;8.88;7.25;;;;;;;28.28;39.96;95032.91;4928750;29;20019;-78
2021/09/16 09:08:26;;;;;;;8.13;7.18;;;;;;;28.36;39.55;95031.50;4929042;29;20023;-81
2021/09/16 09:10:58;;;;;;;7.90;7.20;;;;;;;28.11;39.44;95027.19;4928221;29;20118;-77
2021/09/16 09:13:35;;;;;;;8.88;6.97;;;;;;;28.24;37.63;95023.88;4928424;29;20401;-79
2021/09/16 09:16:05;;;;;;;7.32;6.50;;;;;;;27.45;38.47;95022.25;4927568;29;20123;-78
2021/09/16 09:18:41;;;;;;;9.73;7.30;;;;;;;27.87;38.53;95019.03;4929018;29;20122;-78
2021/09/16 09:21:08;;;;;;;6.78;6.28;;;;;;;27.35;40.67;95013.47;4928709;29;20038;-78
2021/09/16 09:23:56;;;;;;;6.93;6.25;;;;;;;28.05;40.01;95023.75;4924606;29;20107;-80
2021/09/16 09:26:28;;;;;;;7.25;6.55;;;;;;;27.91;40.15;95017.44;4898136;29;20115;-79
2021/09/16 09:28:55;;;;;;;8.02;6.20;;;;;;;28.53;39.60;95013.22;4927550;29;20034;-79
2021/09/16 09:31:22;;;;;;;6.53;5.93;;;;;;;28.59;38.48;95010.22;4929018;29;20510;-79
2021/09/16 09:33:48;;;;;;;7.65;5.82;;;;;;;29.16;38.00;95008.56;4928295;29;20457;-80
2021/09/16 09:36:18;;;;;;;6.60;5.90;;;;;;;28.13;37.53;95001.84;4926026;29;20171;-80
2021/09/16 09:38:53;;;;;;;6.57;5.85;;;;;;;28.49;36.73;94998.84;4928721;29;20106;-78
2021/09/16 09:41:29;;;;;;;6.18;5.57;;;;;;;28.29;37.66;94983.06;4926794;29;20035;-79
2021/09/16 09:44:09;;;;;;;6.78;6.22;;;;;;;28.79;36.88;95011.94;4928369;29;20024;-79
2021/09/16 09:46:39;;;;;;;6.13;5.72;;;;;;;29.25;36.52;95001.56;4928020;29;20879;-78
2021/09/16 09:49:06;;;;;;;6.40;5.78;;;;;;;28.75;35.94;95000.22;4944325;29;20035;-79
2021/09/16 09:51:40;;;;;;;6.28;5.63;;;;;;;29.24;36.62;95000.75;4928918;29;20070;-82
2021/09/16 09:54:20;;;;;;;5.72;5.13;;;;;;;28.64;35.82;95006.72;4927437;29;20111;-79
2021/09/16 09:57:04;;;;;;;7.30;4.95;;;;;;;29.18;35.25;94996.53;4912286;29;20031;-79
2021/09/16 10:00:03;;;;;;;7.20;5.00;;;;;;;29.56;34.44;94989.38;4923715;29;20032;-78
2021/09/16 10:02:54;;;;;;;6.07;4.80;;;;;;;29.98;35.49;94985.84;4925990;29;20425;-80
2021/09/16 10:05:30;;;;;;;5.60;5.10;;;;;;;30.22;34.04;94983.84;4941618;29;20035;-78
2021/09/16 10:07:57;;;;;;;5.07;4.68;;;;;;;29.55;34.52;94987.00;4927093;29;20032;-78
2021/09/16 10:10:22;;;;;;;5.25;4.85;;;;;;;30.05;34.37;94988.97;4928068;29;20409;-80
2021/09/16 10:12:51;;;;;;;4.90;4.50;;;;;;;30.07;33.41;94986.78;4942923;29;20016;-81
2021/09/16 10:15:18;;;;;;;5.68;4.53;;;;;;;29.78;32.37;94984.25;4926826;29;20115;-79
2021/09/16 10:17:44;;;;;;;5.45;4.30;;;;;;;29.27;33.95;94972.69;4928095;29;20052;-82
2021/09/16 10:20:14;;;;;;;4.68;4.20;;;;;;;29.92;32.21;94965.66;4927179;29;20059;-79
2021/09/16 10:22:41;;;;;;;4.47;4.18;;;;;;;29.68;33.43;94978.25;4943913;29;20070;-79
2021/09/16 10:25:08;;;;;;;10.00;4.93;;;;;;;29.53;31.55;94968.59;4910876;29;20035;-79
2021/09/16 10:27:38;;;;;;;4.90;4.40;;;;;;;29.33;33.47;94965.41;4911590;29;20038;-82
2021/09/16 10:30:33;;;;;;;4.28;3.85;;;;;;;29.99;31.84;94968.72;4928475;29;20071;-82
2021/09/16 10:33:02;;;;;;;6.75;4.10;;;;;;;29.92;32.23;94962.19;4923766;29;20047;-82
2021/09/16 10:35:27;;;;;;;4.13;3.72;;;;;;;29.87;31.72;94964.91;4929080;29;20502;-79
2021/09/16 10:37:52;;;;;;;4.28;3.92;;;;;;;29.99;32.13;94955.34;4927077;29;20096;-78
2021/09/16 10:40:24;;;;;;;5.38;4.57;;;;;;;29.65;32.84;94949.47;4944095;29;20055;-79
2021/09/16 10:43:00;;;;;;;4.88;4.47;;;;;;;29.60;32.60;94952.22;4926962;29;20047;-80
2021/09/16 10:45:26;;;;;;;5.50;4.93;;;;;;;29.87;33.32;94954.22;4911986;29;20039;-84
2021/09/16 10:48:25;;;;;;;4.50;4.13;;;;;;;29.84;32.64;94950.25;4943364;29;20028;-80
2021/09/16 10:50:54;;;;;;;11.88;5.20;;;;;;;29.93;31.75;94947.72;4910248;29;20441;-79
2021/09/16 10:53:38;;;;;;;;;;;;;;;30.00;32.26;94945.47;4923694;29;20402;-80
2021/09/16 10:56:05;;;;;;;5.05;4.13;;;;;;;29.95;31.63;94940.22;4912610;29;19918;-86
2021/09/16 10:58:30;;;;;;;4.70;3.78;;;;;;;29.92;30.54;94938.13;4943270;28;20055;-80
2021/09/16 11:00:56;;;;;;;4.53;3.88;;;;;;;29.93;31.60;94931.69;4927438;29;20056;-80
2021/09/16 11:03:21;;;;;;;4.78;4.20;;;;;;;30.33;31.32;94931.78;4908579;29;20502;-85
2021/09/16 11:05:55;;;;;;;4.25;3.85;;;;;;;30.07;31.11;94929.84;4914656;29;20023;-87
2021/09/16 11:08:22;;;;;;;4.28;3.88;;;;;;;29.65;30.79;94920.06;4926834;29;20051;-80
2021/09/16 11:10:49;;;;;;;6.38;4.05;;;;;;;29.61;31.44;94925.19;4928400;29;20051;-81
2021/09/16 11:13:35;;;;;;;4.32;3.92;;;;;;;29.47;31.61;94924.38;4927310;29;20028;-82
2021/09/16 11:16:00;;;;;;;7.82;4.80;;;;;;;28.91;30.33;94902.16;4943055;28;20070;-81
2021/09/16 11:18:26;;;;;;;4.63;4.00;;;;;;;29.17;31.76;94909.53;4943807;29;20059;-82
2021/09/16 11:20:57;;;;;;;4.60;3.83;;;;;;;29.25;31.71;94889.44;4926818;29;20465;-81
2021/09/16 11:23:22;;;;;;;6.22;3.75;;;;;;;29.29;31.75;94909.91;4927976;29;20102;-81
2021/09/16 11:25:50;;;;;;;5.93;4.18;;;;;;;29.95;33.02;94902.81;4900838;29;20032;-82
2021/09/16 11:28:15;;;;;;;4.72;4.10;;;;;;;29.68;31.02;94871.41;4909195;29;20032;-80
2021/09/16 11:30:42;;;;;;;4.93;4.30;;;;;;;29.66;31.58;94893.09;4926873;29;20025;-81
2021/09/16 11:33:12;;;;;;;4.85;4.25;;;;;;;29.41;31.21;94888.13;4927545;29;20036;-81
2021/09/16 11:35:38;;;;;;;6.40;4.00;;;;;;;29.48;32.21;94877.88;4912612;29;20028;-89
2021/09/16 11:38:04;;;;;;;3.90;3.60;;;;;;;29.82;31.40;94877.59;4911369;29;20030;-80
2021/09/16 11:40:34;;;;;;;4.18;3.80;;;;;;;29.68;30.43;94868.75;4895147;29;20059;-82
2021/09/16 11:43:02;;;;;;;5.78;4.00;;;;;;;29.46;31.19;94882.72;4921407;29;20090;-80
2021/09/16 11:45:28;;;;;;;4.57;4.13;;;;;;;29.62;29.88;94872.59;4929834;29;20395;-80
2021/09/16 11:48:04;;;;;;;5.75;3.50;;;;;;;29.84;31.28;94864.75;4945415;29;20028;-80
2021/09/16 11:50:42;;;;;;;4.13;3.53;;;;;;;29.83;28.14;94851.72;4931684;29;20027;-80
2021/09/16 11:53:14;;;;;;;5.07;3.90;;;;;;;29.81;29.17;94868.00;4941984;29;20042;-77
2021/09/16 11:55:44;;;;;;;3.67;3.38;;;;;;;30.20;28.32;94836.31;4928465;29;20103;-79
2021/09/16 11:58:12;;;;;;;4.65;3.00;;;;;;;30.12;27.69;94849.56;4929622;29;20035;-80
2021/09/16 12:00:40;;;;;;;4.07;3.30;;;;;;;30.41;27.71;94852.78;4929134;29;20544;-90
2021/09/16 12:03:07;;;;;;;3.42;2.90;;;;;;;30.79;28.07;94838.09;4932445;29;20031;-84
2021/09/16 12:05:42;;;;;;;3.10;2.90;;;;;;;30.22;25.85;94844.03;4929035;29;20098;-80
2021/09/16 12:08:29;;;;;;;2.75;2.55;;;;;;;30.30;25.32;94840.69;4944035;29;20785;-77
2021/09/16 12:10:56;;;;;;;3.15;2.95;;;;;;;29.94;25.64;94837.06;4943822;29;20048;-79
2021/09/16 12:13:24;;;;;;;5.22;2.72;;;;;;;29.72;26.49;94829.69;4945162;29;20032;-81
2021/09/16 12:15:57;;;;;;;2.67;2.47;;;;;;;29.81;26.50;94820.69;4930765;29;20027;-82
2021/09/16 12:18:23;;;;;;;2.85;2.65;;;;;;;29.83;25.14;94819.66;4929441;29;20036;-81
2021/09/16 12:20:48;;;;;;;2.97;2.63;;;;;;;29.89;25.95;94819.28;4930004;29;20413;-84
2021/09/16 12:23:14;;;;;;;2.72;2.50;;;;;;;29.74;25.65;94806.94;4930073;29;20062;-81
2021/09/16 12:25:54;;;;;;;2.78;2.55;;;;;;;30.02;25.71;94805.09;4903165;29;20036;-84
2021/09/16 12:28:19;;;;;;;2.83;2.28;;;;;;;30.13;25.06;94819.88;4895257;29;20171;-82
2021/09/16 12:30:45;;;;;;;2.55;2.45;;;;;;;29.90;25.30;94818.16;4925927;29;20522;-82
2021/09/16 12:33:38;;;;;;;2.78;2.53;;;;;;;29.86;27.33;94808.38;4927529;29;20067;-81
2021/09/16 12:36:06;;;;;;;3.63;2.50;;;;;;;29.81;27.60;94809.22;4912020;29;20087;-81
2021/09/16 12:38:39;;;;;;;3.55;2.30;;;;;;;30.03;26.62;94808.56;4911498;29;20035;-82
2021/09/16 12:41:24;;;;;;;5.95;3.13;;;;;;;29.75;26.07;94797.03;4911785;29;20028;-85
2021/09/16 12:44:03;;;;;;;3.92;2.78;;;;;;;30.17;27.47;94806.72;4926113;29;20039;-83
2021/09/16 12:46:38;;;;;;;2.58;2.33;;;;;;;30.29;25.70;94793.63;4911513;29;20020;-83
2021/09/16 12:49:04;;;;;;;3.15;2.85;;;;;;;30.32;26.61;94793.84;4913205;29;20036;-92
2021/09/16 12:51:30;;;;;;;2.88;2.65;;;;;;;30.58;25.98;94799.50;4944609;29;20487;-84
2021/09/16 12:53:55;;;;;;;2.72;2.60;;;;;;;30.28;26.68;94798.19;4929542;29;20405;-87
2021/09/16 12:56:21;;;;;;;2.55;2.45;;;;;;;30.49;26.92;94798.63;4913114;29;20489;-81
2021/09/16 12:58:46;;;;;;;3.38;2.80;;;;;;;30.52;25.84;94805.25;4930081;29;20040;-83
2021/09/16 13:01:12;;;;;;;2.53;2.33;;;;;;;30.55;25.75;94801.97;4929089;29;20071;-81
2021/09/16 13:03:37;;;;;;;2.85;2.40;;;;;;;30.41;25.45;94793.19;4929924;29;20032;-80
2021/09/16 13:06:10;;;;;;;2.63;2.30;;;;;;;30.14;25.07;94788.59;4931281;29;20432;-82
2021/09/16 13:08:43;;;;;;;3.10;2.70;;;;;;;29.69;26.82;94788.34;4928843;29;20030;-81
2021/09/16 13:11:40;;;;;;;2.65;2.45;;;;;;;30.09;26.73;94791.34;4929609;29;20040;-82
2021/09/16 13:14:15;;;;;;;5.45;2.83;;;;;;;30.05;25.47;94769.00;4928967;29;20019;-80
2021/09/16 13:16:40;;;;;;;3.30;2.70;;;;;;;30.26;26.90;94791.56;4930776;29;20413;-80
2021/09/16 13:19:06;;;;;;;3.78;2.50;;;;;;;29.86;25.36;94787.00;4930030;29;20051;-80
2021/09/16 13:21:35;;;;;;;3.10;2.90;;;;;;;29.92;25.92;94781.28;4944634;29;20031;-80
2021/09/16 13:24:01;;;;;;;3.10;2.80;;;;;;;30.10;25.85;94768.88;4929929;29;20560;-81
2021/09/16 13:26:27;;;;;;;3.25;3.05;;;;;;;29.52;25.62;94787.28;4928519;29;20043;-81
2021/09/16 13:28:56;;;;;;;3.08;2.88;;;;;;;29.94;26.46;94786.31;4929910;29;20087;-82
2021/09/16 13:31:25;;;;;;;3.10;2.90;;;;;;;29.58;27.42;94781.56;4928790;29;20502;-81
2021/09/16 13:33:50;;;;;;;3.15;2.85;;;;;;;30.08;27.85;94785.25;4945595;29;20433;-83
2021/09/16 13:36:16;;;;;;;4.63;2.92;;;;;;;30.23;27.35;94787.59;4929589;29;20027;-81
2021/09/16 13:38:42;;;;;;;4.10;3.80;;;;;;;29.86;27.62;94785.13;4928926;29;20031;-81
2021/09/16 13:41:08;;;;;;;4.22;3.42;;;;;;;29.60;28.23;94762.59;4914392;29;20036;-80
2021/09/16 13:43:34;;;;;;;3.95;3.20;;;;;;;29.47;27.70;94758.81;4929263;29;20071;-82
2021/09/16 13:45:59;;;;;;;3.17;2.92;;;;;;;29.60;27.20;94765.25;4913303;29;20066;-80
2021/09/16 13:48:25;;;;;;;3.13;2.92;;;;;;;29.75;27.39;94757.75;4928870;29;20032;-81
2021/09/16 13:50:50;;;;;;;4.13;2.78;;;;;;;29.78;26.92;94759.06;4944973;29;20506;-81
2021/09/16 13:53:17;;;;;;;3.70;3.45;;;;;;;29.60;27.52;94757.25;4927561;29;20024;-81
2021/09/16 13:55:42;;;;;;;3.47;3.10;;;;;;;29.28;27.50;94732.16;4930431;29;20028;-80
2021/09/16 13:58:07;;;;;;;3.30;3.08;;;;;;;29.24;27.05;94754.38;4929090;29;20038;-80
2021/09/16 14:00:33;;;;;;;5.13;2.70;;;;;;;29.54;26.84;94761.88;4929325;29;20035;-81
2021/09/16 14:02:58;;;;;;;2.90;2.60;;;;;;;29.92;27.26;94753.75;4928999;29;20469;-80
2021/09/16 14:05:24;;;;;;;3.90;2.65;;;;;;;29.94;27.00;94763.06;4929276;29;20027;-80
2021/09/16 14:07:49;;;;;;;4.07;3.20;;;;;;;29.39;27.46;94756.81;4929390;29;20035;-80
2021/09/16 14:10:15;;;;;;;4.65;3.78;;;;;;;29.42;28.10;94758.09;4929219;29;20036;-82
2021/09/16 14:12:40;;;;;;;3.15;2.95;;;;;;;29.45;27.89;94765.50;4930464;29;20439;-79
2021/09/16 14:15:06;;;;;;;5.25;3.40;;;;;;;29.32;27.79;94758.25;4928065;29;20082;-79
2021/09/16 14:17:32;;;;;;;3.35;2.97;;;;;;;29.27;28.43;94762.63;4941767;29;20516;-80
2021/09/16 14:19:57;;;;;;;2.97;2.78;;;;;;;29.28;28.01;94758.84;4921575;29;20051;-79
2021/09/16 14:22:23;;;;;;;4.05;3.65;;;;;;;29.10;28.39;94762.31;4909464;29;20032;-82
2021/09/16 14:24:48;;;;;;;3.63;3.33;;;;;;;28.85;29.04;94761.91;4920371;29;20030;-79
2021/09/16 14:27:14;;;;;;;6.53;3.58;;;;;;;28.51;28.02;94754.88;4942637;29;20027;-79
2021/09/16 14:29:39;;;;;;;3.83;3.10;;;;;;;28.98;28.75;94755.84;4928069;29;20043;-79
2021/09/16 14:32:06;;;;;;;6.40;3.55;;;;;;;28.92;28.84;94731.13;4928283;29;20043;-80
2021/09/16 14:34:31;;;;;;;4.65;4.00;;;;;;;28.85;28.93;94761.91;4927507;29;20043;-79
2021/09/16 14:36:57;;;;;;;3.85;3.50;;;;;;;29.03;28.70;94750.41;4928408;29;20036;-80
2021/09/16 14:39:23;;;;;;;3.90;3.60;;;;;;;28.99;28.60;94752.09;4911210;29;20023;-79
2021/09/16 14:41:48;;;;;;;4.20;3.55;;;;;;;28.86;29.46;94756.31;4943972;28;20039;-80
2021/09/16 14:44:14;;;;;;;3.85;3.55;;;;;;;28.89;29.93;94763.72;4942330;29;20409;-80
2021/09/16 14:46:39;;;;;;;4.88;3.78;;;;;;;28.74;29.79;94758.59;4928539;29;20394;-80
2021/09/16 14:49:04;;;;;;;7.93;3.67;;;;;;;28.91;29.43;94768.75;4918164;29;20032;-80
2021/09/16 14:51:31;;;;;;;4.20;3.80;;;;;;;28.80;29.40;94752.13;4902504;29;20040;-80
2021/09/16 14:53:58;;;;;;;4.70;3.88;;;;;;;28.90;28.77;94775.19;4910025;29;20119;-80
2021/09/16 14:56:24;;;;;;;4.20;3.80;;;;;;;28.94;28.90;94760.97;4931165;29;20046;-80
2021/09/16 14:58:49;;;;;;;4.25;3.10;;;;;;;29.07;29.28;94760.22;4909905;29;20095;-80
2021/09/16 15:01:15;;;;;;;3.70;3.30;;;;;;;28.89;28.70;94768.25;4939232;29;20056;-80
2021/09/16 15:03:40;;;;;;;4.30;3.25;;;;;;;28.86;29.93;94756.31;4942967;28;20039;-80
2021/09/16 15:06:06;;;;;;;4.03;3.67;;;;;;;28.80;29.37;94749.47;4928097;29;20485;-80
2021/09/16 15:08:31;;;;;;;4.18;3.70;;;;;;;28.63;29.00;94717.94;4916552;29;20119;-79
2021/09/16 15:10:57;;;;;;;4.20;3.90;;;;;;;28.93;29.39;94750.59;4928792;29;20031;-79
2021/09/16 15:13:23;;;;;;;4.07;3.78;;;;;;;28.85;29.25;94761.91;4929912;29;20152;-80
2021/09/16 15:15:50;;;;;;;4.25;3.90;;;;;;;28.63;29.51;94759.81;4929832;29;20111;-81
2021/09/16 15:18:16;;;;;;;4.40;4.00;;;;;;;28.51;29.22;94746.88;4928521;29;20127;-80
2021/09/16 15:20:41;;;;;;;3.95;3.50;;;;;;;28.64;29.44;94758.72;4930971;29;20035;-79
2021/09/16 15:23:10;;;;;;;3.75;3.45;;;;;;;28.77;29.60;94760.69;4930416;29;20043;-80
2021/09/16 15:25:36;;;;;;;5.68;4.10;;;;;;;28.64;30.01;94756.06;4946475;29;20111;-80
2021/09/16 15:28:02;;;;;;;3.80;3.50;;;;;;;28.39;30.82;94743.84;4944989;29;20066;-80
2021/09/16 15:30:27;;;;;;;5.80;3.75;;;;;;;28.29;30.97;94746.66;4946027;29;20461;-80
2021/09/16 15:32:53;;;;;;;3.70;3.35;;;;;;;28.09;31.53;94733.59;4930380;29;20031;-80
2021/09/16 15:35:18;;;;;;;4.15;3.33;;;;;;;27.86;32.03;94740.50;4914150;29;20035;-81
2021/09/16 15:37:44;;;;;;;3.97;3.63;;;;;;;27.67;33.34;94742.31;4931530;29;20035;-81
2021/09/16 15:40:09;;;;;;;4.50;3.25;;;;;;;27.57;32.85;94745.88;4928965;29;20031;-81
2021/09/16 15:42:35;;;;;;;4.28;3.88;;;;;;;27.29;34.01;94738.66;4931038;29;20406;-81
2021/09/16 15:45:00;;;;;;;7.57;3.95;;;;;;;27.12;34.46;94748.91;4929898;29;20107;-81
2021/09/16 15:47:26;;;;;;;4.13;3.72;;;;;;;26.72;36.91;94753.41;4931071;29;20491;-81
2021/09/16 15:49:52;;;;;;;5.82;3.53;;;;;;;26.45;37.90;94749.59;4929682;29;20020;-81
2021/09/16 15:52:17;;;;;;;4.10;3.80;;;;;;;26.01;40.75;94736.22;4930201;29;20106;-80
2021/09/16 15:54:43;;;;;;;4.10;3.70;;;;;;;25.73;42.87;94753.59;4930982;29;20038;-81
2021/09/16 15:57:09;;;;;;;18.63;10.65;;;;;;;25.39;43.92;94747.25;4929856;29;20055;-81
2021/09/16 15:59:34;;;;;;;11.27;6.40;;;;;;;25.07;44.58;94758.97;4899091;29;20035;-81
2021/09/16 16:02:00;;;;;;;14.15;9.55;;;;;;;24.88;44.84;94759.75;4928451;29;20083;-81
2021/09/16 16:04:26;;;;;;;23.17;14.75;;;;;;;24.93;45.54;94757.09;4931639;29;20513;-81
2021/09/16 16:06:51;;;;;;;91.53;65.55;;;;;;;24.87;45.55;94755.50;4930879;29;20023;-82
2021/09/16 16:09:18;;;;;;;62.97;37.25;;;;;;;24.64;44.61;94754.91;4947199;29;20467;-80
2021/09/16 16:11:44;;;;;;;21.08;11.00;;;;;;;24.48;42.80;94747.19;4946683;29;20462;-81
2021/09/16 16:14:09;;;;;;;14.05;7.47;;;;;;;24.25;42.93;94743.16;4931778;29;20024;-81
2021/09/16 16:16:35;;;;;;;7.32;6.45;;;;;;;24.28;42.56;94760.38;4931515;29;20039;-82
2021/09/16 16:19:01;;;;;;;11.90;7.40;;;;;;;24.22;42.96;94756.13;4914031;29;20046;-81
2021/09/16 16:21:26;;;;;;;6.00;5.22;;;;;;;24.05;42.66;94758.94;4914926;29;20110;-81
2021/09/16 16:23:52;;;;;;;8.55;5.40;;;;;;;24.03;43.24;94755.75;4930490;29;20536;-81
2021/09/16 16:26:20;;;;;;;8.23;7.30;;;;;;;23.93;43.56;94742.50;4924822;29;20035;-81
2021/09/16 16:28:45;;;;;;;5.90;5.30;;;;;;;23.80;44.35;94764.13;4926493;29;20032;-80
2021/09/16 16:31:11;;;;;;;11.93;9.95;;;;;;;23.66;45.47;94757.72;4911787;29;20368;-80
2021/09/16 16:33:36;;;;;;;11.45;9.43;;;;;;;23.57;45.17;94766.13;4928991;29;20151;-81
2021/09/16 16:36:02;;;;;;;8.48;6.72;;;;;;;23.44;45.42;94755.19;4929915;29;20024;-82